Time;durP1;ratioP1;P1;durP2;ratioP2;P2;SDS_P1;SDS_P2;PMS_P1;PMS_P2;Temp;Humidity;BMP_temperature;BMP_pressure;BME280_temperature;BME280_humidity;BME280_pressure;Samples;Min_cycle;Max_cycle;Signal;HPM_P1;HPM_P2
2022/09/18 00:02:57;;;;;;;2.30;0.60;;;;;;;17.40;55.06;100118.56;5033995;28;20415;-59
2022/09/18 00:05:23;;;;;;;3.47;0.90;;;;;;;17.34;55.02;100114.97;5025739;28;20465;-60
2022/09/18 00:07:48;;;;;;;1.20;0.43;;;;;;;17.29;54.82;100127.41;5040512;28;20394;-60
2022/09/18 00:10:14;;;;;;;0.33;0.30;;;;;;;17.24;54.49;100117.38;5028216;28;20398;-60
2022/09/18 00:12:39;;;;;;;1.65;0.50;;;;;;;17.15;53.94;100138.28;5028426;28;20447;-60
2022/09/18 00:15:06;;;;;;;2.10;0.57;;;;;;;17.08;53.93;100142.94;5028231;28;20383;-60
2022/09/18 00:18:10;;;;;;;2.60;0.70;;;;;;;16.99;53.66;100161.16;5086927;27;20454;-61
2022/09/18 00:20:36;;;;;;;2.73;0.60;;;;;;;16.94;54.03;100165.56;5079373;28;20399;-60
2022/09/18 00:23:02;;;;;;;2.43;0.57;;;;;;;16.86;54.00;100169.38;5081321;28;20897;-59
2022/09/18 00:25:28;;;;;;;2.60;0.57;;;;;;;16.82;53.79;100173.53;5076664;28;20452;-61
2022/09/18 00:27:54;;;;;;;2.90;0.70;;;;;;;16.76;53.74;100179.75;5080119;28;20394;-62
2022/09/18 00:30:19;;;;;;;6.20;1.17;;;;;;;16.73;53.85;100161.50;5083338;28;20454;-60
2022/09/18 00:32:45;;;;;;;3.77;0.70;;;;;;;16.65;53.71;100161.78;5082048;28;20386;-61
2022/09/18 00:39:29;;;;;;;4.45;0.80;;;;;;;16.63;53.62;100197.59;5084711;27;20452;-60
2022/09/18 00:41:54;;;;;;;3.83;0.80;;;;;;;16.56;53.83;100204.06;5082052;28;20403;-61
2022/09/18 00:44:59;;;;;;;5.63;0.93;;;;;;;16.57;53.80;100219.91;5081752;28;20397;-60
2022/09/18 00:47:37;;;;;;;6.67;1.00;;;;;;;16.50;53.94;100221.00;5073260;28;20447;-61
2022/09/18 00:53:52;;;;;;;3.60;0.70;;;;;;;16.46;53.86;100236.69;5066647;28;20416;-60
2022/09/18 00:56:19;;;;;;;4.25;0.65;;;;;;;16.47;53.65;100251.69;5062289;28;20410;-60
2022/09/18 01:00:08;;;;;;;7.95;1.00;;;;;;;16.34;53.42;100259.84;5086329;27;20435;-59
2022/09/18 01:02:34;;;;;;;2.20;0.63;;;;;;;16.33;53.36;100269.72;5085649;28;20406;-60
2022/09/18 01:04:59;;;;;;;1.80;0.50;;;;;;;16.33;52.87;100251.00;5083352;28;20424;-59
2022/09/18 01:07:37;;;;;;;4.67;0.80;;;;;;;16.30;52.83;100238.06;5083620;28;20386;-59
2022/09/18 01:10:33;;;;;;;1.90;0.53;;;;;;;16.35;52.65;100229.38;5082063;28;20526;-60
2022/09/18 01:13:10;;;;;;;3.40;0.77;;;;;;;16.42;52.42;100249.69;5082889;28;20915;-61
2022/09/18 01:15:44;;;;;;;4.47;0.90;;;;;;;16.42;51.97;100256.88;5084990;28;20902;-60
2022/09/18 01:18:22;;;;;;;5.13;0.95;;;;;;;16.39;51.88;100266.16;5085132;28;20500;-60
2022/09/18 01:21:06;;;;;;;3.35;0.65;;;;;;;16.37;51.41;100275.47;5082898;28;20381;-60
2022/09/18 01:24:06;;;;;;;4.13;0.90;;;;;;;16.38;51.23;100295.81;5081447;28;20383;-59
2022/09/18 01:26:55;;;;;;;2.67;0.65;;;;;;;16.31;51.14;100295.84;5076682;28;20390;-60
2022/09/18 01:30:11;;;;;;;7.45;1.10;;;;;;;16.24;50.85;100325.34;5046300;28;20405;-60
2022/09/18 01:32:46;;;;;;;1.75;0.52;;;;;;;16.28;50.56;100335.59;5042997;28;20965;-59
2022/09/18 01:35:21;;;;;;;1.90;0.70;;;;;;;16.22;50.63;100342.63;5042215;28;20451;-60
2022/09/18 01:37:55;;;;;;;4.95;1.00;;;;;;;16.16;50.45;100340.81;5041164;28;20385;-59
2022/09/18 01:41:21;;;;;;;2.72;0.70;;;;;;;16.16;50.34;100343.50;5049154;28;20971;-59
2022/09/18 01:43:52;;;;;;;2.05;0.60;;;;;;;16.00;50.34;100348.31;5044649;28;20455;-60
2022/09/18 01:48:06;;;;;;;5.80;1.10;;;;;;;16.08;50.07;100349.09;5068898;28;20465;-59
2022/09/18 01:50:37;;;;;;;1.70;0.60;;;;;;;15.99;50.04;100349.38;5061442;28;20410;-59
2022/09/18 01:54:43;;;;;;;2.00;0.80;;;;;;;15.99;49.95;100345.84;5058642;27;2109171;-59
2022/09/18 01:58:08;;;;;;;1.77;0.65;;;;;;;16.01;49.72;100333.13;5047379;28;20405;-61
2022/09/18 02:00:37;;;;;;;3.47;0.70;;;;;;;15.93;49.96;100331.50;5044218;28;20401;-60
2022/09/18 02:03:46;;;;;;;3.72;0.73;;;;;;;15.94;49.88;100341.16;5048051;28;20417;-58
2022/09/18 02:06:18;;;;;;;1.98;0.65;;;;;;;15.95;49.88;100350.00;5043665;28;20403;-59
2022/09/18 02:08:48;;;;;;;1.80;0.60;;;;;;;15.93;49.85;100354.75;5044141;28;20392;-59
2022/09/18 02:11:16;;;;;;;1.98;0.60;;;;;;;15.97;49.60;100367.47;5042540;28;20453;-59
2022/09/18 02:14:15;;;;;;;2.30;0.63;;;;;;;15.98;49.30;100369.09;5044561;28;20489;-61
2022/09/18 02:18:48;;;;;;;2.65;0.52;;;;;;;16.12;49.03;100382.41;5047739;28;20410;-60
2022/09/18 02:21:17;;;;;;;2.13;0.75;;;;;;;16.11;49.01;100389.59;5045623;28;20409;-60
2022/09/18 02:23:44;;;;;;;4.00;0.90;;;;;;;16.17;49.05;100394.09;5043564;28;20393;-60
2022/09/18 02:26:11;;;;;;;2.22;0.70;;;;;;;16.22;48.87;100406.81;5042867;28;20396;-60
2022/09/18 02:28:38;;;;;;;1.55;0.65;;;;;;;16.17;48.80;100407.47;5044103;28;20381;-61
2022/09/18 02:32:37;;;;;;;2.47;0.70;;;;;;;16.21;48.71;100424.72;5085974;27;20406;-59
2022/09/18 02:35:06;;;;;;;3.10;0.63;;;;;;;16.19;48.59;100429.47;5083440;28;20402;-59
2022/09/18 02:37:40;;;;;;;1.85;0.57;;;;;;;16.19;48.44;100434.00;5083408;28;20876;-59
2022/09/18 02:40:20;;;;;;;2.30;0.63;;;;;;;16.15;48.57;100428.25;5084484;28;20426;-60
2022/09/18 02:43:23;;;;;;;2.15;0.60;;;;;;;16.14;48.65;100434.63;5080863;28;20374;-59
2022/09/18 02:47:52;;;;;;;3.15;0.88;;;;;;;16.16;48.37;100431.75;5047422;28;20425;-59
2022/09/18 02:50:45;;;;;;;6.25;1.30;;;;;;;16.24;48.45;100436.81;5042851;28;20471;-60
2022/09/18 02:55:26;;;;;;;2.25;1.23;;;;;;;16.24;48.23;100436.81;5047495;28;20405;-59
2022/09/18 02:57:58;;;;;;;3.45;1.10;;;;;;;16.26;48.26;100426.75;5042185;28;20812;-60
2022/09/18 03:00:26;;;;;;;2.15;0.90;;;;;;;16.27;48.16;100428.38;5045265;28;20374;-60
2022/09/18 03:02:55;;;;;;;1.38;0.70;;;;;;;16.23;47.98;100409.28;5043644;28;20400;-61
2022/09/18 03:05:20;;;;;;;1.60;0.80;;;;;;;16.26;48.05;100405.38;5041804;28;20397;-60
2022/09/18 03:11:50;;;;;;;4.60;1.23;;;;;;;16.18;48.31;100429.69;5066873;28;20411;-60
2022/09/18 03:14:15;;;;;;;2.08;0.80;;;;;;;16.21;48.75;100429.25;5063466;28;20453;-59
2022/09/18 03:16:41;;;;;;;2.55;1.20;;;;;;;16.15;48.99;100430.09;5059183;28;20829;-59
2022/09/18 03:19:07;;;;;;;2.30;1.00;;;;;;;16.15;49.25;100422.91;5065481;28;20388;-60
2022/09/18 03:23:04;;;;;;;1.98;1.20;;;;;;;16.12;49.43;100428.69;5087544;27;20502;-60
2022/09/18 03:27:17;;;;;;;2.58;1.10;;;;;;;16.09;49.87;100436.31;5048409;28;20406;-60
2022/09/18 03:29:44;;;;;;;2.50;1.50;;;;;;;16.05;49.57;100435.91;5042811;28;20401;-59
2022/09/18 03:32:10;;;;;;;1.45;1.17;;;;;;;16.10;49.58;100440.59;5038858;28;20386;-60
2022/09/18 03:34:37;;;;;;;3.83;1.50;;;;;;;16.13;49.45;100438.31;5043539;28;20389;-60
2022/09/18 03:37:02;;;;;;;1.77;1.50;;;;;;;16.14;48.69;100449.88;5037822;28;20431;-60
2022/09/18 03:39:28;;;;;;;2.80;1.58;;;;;;;16.08;48.40;100440.00;5044146;28;20915;-60
2022/09/18 03:41:53;;;;;;;2.63;1.80;;;;;;;16.04;47.79;100445.78;5039967;28;20392;-60
2022/09/18 03:44:19;;;;;;;2.40;1.60;;;;;;;16.05;47.72;100455.44;5044478;28;20463;-60
2022/09/18 03:46:44;;;;;;;1.90;1.70;;;;;;;16.04;47.61;100461.00;5042267;28;20420;-59
2022/09/18 03:49:50;;;;;;;2.22;1.77;;;;;;;16.09;47.48;100463.84;5066869;27;20412;-59
2022/09/18 03:52:16;;;;;;;2.10;1.90;;;;;;;16.03;47.52;100459.38;5061392;28;20453;-60
2022/09/18 03:54:42;;;;;;;1.90;1.70;;;;;;;16.01;47.50;100456.09;5058902;28;20384;-61
2022/09/18 03:57:07;;;;;;;1.70;1.60;;;;;;;15.98;47.62;100460.00;5061898;28;20402;-60
2022/09/18 03:59:33;;;;;;;2.38;1.85;;;;;;;15.98;47.63;100465.34;5062415;28;20487;-60
2022/09/18 04:03:33;;;;;;;4.18;2.10;;;;;;;15.97;47.38;100479.75;5028585;28;20490;-59
2022/09/18 04:05:59;;;;;;;1.95;1.60;;;;;;;16.00;47.42;100482.00;5021210;28;20404;-61
2022/09/18 04:10:55;;;;;;;1.45;1.35;;;;;;;15.92;47.34;100490.25;5052464;27;20409;-60
2022/09/18 04:13:21;;;;;;;3.83;1.63;;;;;;;15.89;47.50;100498.69;5050253;28;20452;-59
2022/09/18 04:15:49;;;;;;;3.43;1.67;;;;;;;15.91;47.37;100515.34;5047239;28;20417;-59
2022/09/18 04:20:32;;;;;;;2.92;1.45;;;;;;;15.87;47.47;100519.47;5068663;27;20415;-60
2022/09/18 04:22:58;;;;;;;2.22;1.40;;;;;;;15.83;47.39;100526.28;5059690;28;20453;-60
2022/09/18 04:25:23;;;;;;;2.07;1.43;;;;;;;15.84;47.46;100527.91;5062961;28;20388;-60
2022/09/18 04:27:48;;;;;;;4.55;2.05;;;;;;;15.92;47.55;100535.69;5061832;28;20380;-60
2022/09/18 04:30:14;;;;;;;2.60;1.60;;;;;;;16.00;47.45;100532.78;5059910;28;20398;-60
2022/09/18 04:32:44;;;;;;;2.00;1.52;;;;;;;16.12;47.37;100546.34;5061313;28;20391;-61
2022/09/18 04:35:10;;;;;;;2.15;1.60;;;;;;;16.19;47.34;100557.03;5065179;28;20391;-60
2022/09/18 04:37:35;;;;;;;2.87;1.60;;;;;;;16.31;47.01;100562.53;5062970;28;20463;-60
2022/09/18 04:40:01;;;;;;;2.90;1.63;;;;;;;16.62;46.29;100551.91;5066435;28;20416;-60
2022/09/18 04:42:27;;;;;;;1.95;1.50;;;;;;;16.95;45.64;100560.81;5060995;28;20449;-61
2022/09/18 04:44:52;;;;;;;2.10;1.40;;;;;;;17.33;45.00;100557.22;5062117;28;20392;-60
2022/09/18 04:47:18;;;;;;;1.65;1.50;;;;;;;17.54;44.41;100551.50;5060796;28;20410;-60
2022/09/18 04:49:43;;;;;;;4.63;1.60;;;;;;;17.78;43.91;100557.84;5056460;28;20474;-60
2022/09/18 04:52:09;;;;;;;2.47;1.60;;;;;;;17.94;43.64;100553.81;5062983;28;20380;-61
2022/09/18 04:54:35;;;;;;;2.90;1.63;;;;;;;17.96;43.36;100562.44;5065333;28;20402;-60
2022/09/18 04:57:00;;;;;;;2.83;1.90;;;;;;;17.90;43.36;100568.72;5055077;28;20869;-61
2022/09/18 04:59:25;;;;;;;2.97;1.80;;;;;;;18.24;42.65;100561.13;5061427;28;20435;-60
2022/09/18 05:01:51;;;;;;;2.37;1.60;;;;;;;18.39;42.46;100562.59;5065231;28;20392;-60
2022/09/18 05:04:16;;;;;;;3.37;1.77;;;;;;;18.68;41.92;100569.84;5060602;28;20384;-60
2022/09/18 05:06:42;;;;;;;2.58;1.85;;;;;;;18.96;41.32;100562.25;5060656;28;20396;-62
2022/09/18 05:09:07;;;;;;;4.00;1.97;;;;;;;19.18;40.89;100566.06;5064317;28;21264;-60
2022/09/18 05:11:33;;;;;;;2.13;1.48;;;;;;;19.20;40.71;100573.91;5063954;28;20380;-62
2022/09/18 05:13:58;;;;;;;2.07;1.40;;;;;;;18.88;40.90;100563.41;5063116;28;20932;-60
2022/09/18 05:16:24;;;;;;;1.92;1.48;;;;;;;18.56;41.53;100573.53;5063857;28;20399;-61
2022/09/18 05:18:50;;;;;;;2.07;1.50;;;;;;;18.25;41.95;100578.03;5063781;28;20420;-60
2022/09/18 05:21:16;;;;;;;2.70;1.80;;;;;;;18.20;42.12;100572.50;5061076;28;20774;-60
2022/09/18 05:23:44;;;;;;;3.20;1.40;;;;;;;18.01;42.23;100577.88;5064641;28;20422;-60
2022/09/18 05:26:10;;;;;;;3.28;1.73;;;;;;;17.91;42.54;100567.66;5063398;28;20391;-60
2022/09/18 05:28:36;;;;;;;2.97;1.58;;;;;;;17.91;42.73;100572.19;5064390;28;20380;-60
2022/09/18 05:31:02;;;;;;;3.40;1.70;;;;;;;17.76;42.49;100583.25;5055628;28;20829;-61
2022/09/18 05:33:27;;;;;;;3.97;1.50;;;;;;;17.77;42.92;100574.16;5049937;28;20423;-61
2022/09/18 05:35:55;;;;;;;2.77;1.57;;;;;;;17.77;42.92;100590.22;5050892;28;20384;-60
2022/09/18 05:38:21;;;;;;;2.28;1.30;;;;;;;17.85;43.04;100594.53;5050827;28;20400;-62
2022/09/18 05:40:50;;;;;;;1.95;1.40;;;;;;;17.73;42.93;100595.22;5049502;28;20393;-60
2022/09/18 05:43:16;;;;;;;2.70;1.50;;;;;;;17.68;43.24;100600.44;5050814;28;20388;-60
2022/09/18 05:45:42;;;;;;;4.15;1.60;;;;;;;17.76;43.36;100600.16;5047390;28;20390;-62
2022/09/18 05:48:11;;;;;;;2.05;1.40;;;;;;;17.58;43.34;100602.78;5050594;28;20966;-60
2022/09/18 05:50:36;;;;;;;2.28;1.40;;;;;;;17.55;43.62;100608.59;5050309;28;20928;-60
2022/09/18 05:53:12;;;;;;;2.75;1.20;;;;;;;17.36;43.75;100607.72;5051144;28;20381;-60
2022/09/18 05:55:38;;;;;;;2.17;1.35;;;;;;;17.39;43.93;100616.13;5049473;28;20385;-61
2022/09/18 05:58:06;;;;;;;3.13;1.48;;;;;;;17.40;43.86;100608.91;5048621;28;20423;-61
2022/09/18 06:00:33;;;;;;;3.90;1.50;;;;;;;17.40;43.95;100608.91;5050011;28;20894;-61
2022/09/18 06:03:02;;;;;;;1.80;1.23;;;;;;;17.38;43.82;100609.13;5050632;28;20404;-61
2022/09/18 06:05:29;;;;;;;3.60;1.47;;;;;;;17.31;43.98;100608.34;5050398;28;20396;-61
2022/09/18 06:07:59;;;;;;;3.92;1.45;;;;;;;17.43;43.88;100624.56;5049876;28;20416;-60
2022/09/18 06:10:25;;;;;;;2.25;1.30;;;;;;;17.51;43.39;100618.09;5050337;28;20389;-60
2022/09/18 06:13:09;;;;;;;1.73;1.15;;;;;;;17.42;43.56;100611.38;5050400;28;20399;-60
2022/09/18 06:15:35;;;;;;;1.50;1.20;;;;;;;17.34;43.73;100617.78;5049742;28;20414;-60
2022/09/18 06:18:02;;;;;;;2.10;1.30;;;;;;;17.49;43.47;100615.63;5049443;28;20986;-60
2022/09/18 06:20:28;;;;;;;3.15;1.30;;;;;;;17.63;43.53;100621.72;5048762;28;20425;-61
2022/09/18 06:22:57;;;;;;;2.03;1.40;;;;;;;17.65;43.62;100624.19;5050097;28;20742;-61
2022/09/18 06:25:23;;;;;;;3.03;1.47;;;;;;;17.69;43.51;100628.06;5050164;28;20384;-60
2022/09/18 06:27:57;;;;;;;1.90;1.43;;;;;;;17.67;43.54;100630.16;5047033;28;20388;-61
2022/09/18 06:30:26;;;;;;;1.98;1.58;;;;;;;17.57;43.77;100635.97;5049764;28;20882;-60
2022/09/18 06:32:53;;;;;;;1.70;1.50;;;;;;;17.61;43.75;100639.88;5048813;28;20547;-61
2022/09/18 06:35:19;;;;;;;2.00;1.50;;;;;;;17.69;43.75;100641.47;5049217;28;20413;-61
2022/09/18 06:37:44;;;;;;;2.17;1.75;;;;;;;17.67;43.77;100641.69;5049155;28;20957;-60
2022/09/18 06:41:08;;;;;;;4.10;1.90;;;;;;;17.58;44.08;100667.13;5086821;27;20919;-59
2022/09/18 06:43:35;;;;;;;2.85;1.58;;;;;;;17.54;44.12;100666.72;5081221;28;20463;-59
2022/09/18 06:46:00;;;;;;;2.00;1.50;;;;;;;17.62;44.17;100676.34;5084108;28;20401;-61
2022/09/18 06:48:28;;;;;;;1.67;1.40;;;;;;;17.57;44.12;100678.88;5081635;28;20767;-61
2022/09/18 06:50:56;;;;;;;2.38;1.42;;;;;;;17.50;44.30;100692.34;5083987;28;20405;-60
2022/09/18 06:53:23;;;;;;;1.70;1.40;;;;;;;17.56;44.54;100696.81;5075649;28;20394;-61
2022/09/18 06:55:49;;;;;;;2.58;1.27;;;;;;;17.65;43.99;100696.56;5083084;28;20762;-61
2022/09/18 06:58:19;;;;;;;1.95;1.27;;;;;;;17.64;43.87;100702.94;5083099;28;20876;-62
2022/09/18 07:00:45;;;;;;;2.33;1.10;;;;;;;17.64;43.63;100711.81;5082678;28;20517;-60
2022/09/18 07:03:11;;;;;;;1.65;0.95;;;;;;;17.73;43.66;100713.19;5077419;28;20469;-61
2022/09/18 07:05:41;;;;;;;2.30;1.15;;;;;;;17.72;43.28;100711.56;5066068;28;20830;-61
2022/09/18 07:08:08;;;;;;;1.95;1.10;;;;;;;17.75;43.19;100716.50;5071971;28;20404;-59
2022/09/18 07:10:33;;;;;;;2.67;1.17;;;;;;;17.78;43.06;100712.53;5070147;28;20390;-61
2022/09/18 07:14:59;;;;;;;1.73;0.90;;;;;;;17.77;42.77;100724.28;5043186;28;20407;-60
2022/09/18 07:17:25;;;;;;;2.85;1.20;;;;;;;17.89;42.90;100727.94;5037254;28;20454;-61
2022/09/18 07:19:52;;;;;;;2.50;0.90;;;;;;;17.96;42.64;100734.09;5036202;28;20395;-63
2022/09/18 07:22:17;;;;;;;2.80;1.13;;;;;;;18.08;42.45;100744.94;5030260;28;20392;-61
2022/09/18 07:24:43;;;;;;;2.08;0.80;;;;;;;18.12;42.13;100734.59;4992426;28;20411;-61
2022/09/18 07:27:08;;;;;;;2.50;1.10;;;;;;;18.16;42.02;100730.41;5013716;28;20385;-61
2022/09/18 07:29:34;;;;;;;1.65;1.08;;;;;;;18.27;42.07;100745.78;5009062;28;20486;-62
2022/09/18 07:31:59;;;;;;;2.07;1.40;;;;;;;18.26;41.98;100746.84;5008408;28;20388;-62
2022/09/18 07:34:25;;;;;;;2.13;1.00;;;;;;;18.24;41.97;100740.88;5006471;28;20452;-62
2022/09/18 07:36:50;;;;;;;2.03;0.93;;;;;;;18.25;41.76;100736.34;5011193;28;20408;-61
2022/09/18 07:39:16;;;;;;;3.93;1.07;;;;;;;18.24;41.54;100748.09;5008139;28;20393;-62
2022/09/18 07:41:42;;;;;;;1.73;1.10;;;;;;;18.26;41.64;100748.72;5008686;28;20428;-61
2022/09/18 07:44:08;;;;;;;2.03;1.13;;;;;;;18.34;41.42;100756.47;5005740;28;20930;-62
2022/09/18 07:46:34;;;;;;;5.20;0.82;;;;;;;18.42;41.20;100756.22;5006060;28;20408;-61
2022/09/18 07:48:59;;;;;;;1.45;0.70;;;;;;;18.42;40.93;100755.38;5010561;28;20867;-61
2022/09/18 07:51:25;;;;;;;2.10;0.80;;;;;;;18.53;40.82;100763.53;5007241;28;20392;-61
2022/09/18 07:53:50;;;;;;;2.50;1.00;;;;;;;18.64;40.98;100766.53;5005787;28;20845;-61
2022/09/18 07:56:16;;;;;;;2.20;1.00;;;;;;;18.69;40.06;100761.28;5007766;28;20386;-62
2022/09/18 07:58:42;;;;;;;2.28;0.93;;;;;;;18.65;39.93;100768.16;5006511;28;20886;-62
2022/09/18 08:01:07;;;;;;;1.27;0.80;;;;;;;18.81;39.54;100770.28;5019221;28;20381;-63
2022/09/18 08:03:34;;;;;;;2.72;1.00;;;;;;;18.86;39.53;100773.13;5020854;28;20449;-62
2022/09/18 08:06:00;;;;;;;1.83;0.70;;;;;;;18.75;39.24;100775.72;5022690;28;20392;-62
2022/09/18 08:08:25;;;;;;;1.20;0.77;;;;;;;18.86;39.19;100775.81;5017171;28;20450;-61
2022/09/18 08:10:51;;;;;;;1.65;0.70;;;;;;;18.88;38.96;100773.72;5018817;28;20387;-62
2022/09/18 08:13:16;;;;;;;1.70;0.80;;;;;;;19.06;38.17;100778.28;5021214;28;20492;-62
2022/09/18 08:15:42;;;;;;;3.13;1.10;;;;;;;19.14;37.86;100787.06;5012253;28;20397;-61
2022/09/18 08:18:10;;;;;;;2.50;1.00;;;;;;;19.20;37.43;100772.75;5024119;28;20520;-61
2022/09/18 08:20:36;;;;;;;1.77;0.80;;;;;;;19.24;37.71;100776.63;5014387;28;20773;-61
2022/09/18 08:23:04;;;;;;;2.50;0.90;;;;;;;19.25;37.59;100770.22;5021900;28;20932;-61
2022/09/18 08:25:29;;;;;;;2.43;0.97;;;;;;;19.34;37.10;100776.91;5003407;28;20539;-62
2022/09/18 08:28:00;;;;;;;2.93;1.10;;;;;;;19.33;37.06;100777.94;4992690;28;20922;-61
2022/09/18 08:30:26;;;;;;;3.78;0.98;;;;;;;19.40;37.03;100785.94;5001053;28;20414;-61
2022/09/18 08:32:57;;;;;;;3.22;1.08;;;;;;;19.46;37.08;100783.19;5003617;28;20384;-61
2022/09/18 08:35:23;;;;;;;3.53;1.00;;;;;;;19.49;36.85;100793.44;5006745;28;20487;-62
2022/09/18 08:37:48;;;;;;;3.30;0.90;;;;;;;19.56;37.02;100785.31;5010842;28;20399;-61
2022/09/18 08:40:16;;;;;;;2.15;1.00;;;;;;;19.72;36.81;100791.09;5006779;28;20938;-61
2022/09/18 08:43:05;;;;;;;2.85;1.02;;;;;;;19.60;36.82;100783.78;5012706;28;20488;-61
2022/09/18 08:45:39;;;;;;;3.67;1.02;;;;;;;19.72;36.60;100783.03;5004210;28;20388;-61
2022/09/18 08:48:13;;;;;;;2.70;1.00;;;;;;;19.95;35.95;100793.06;5001470;28;20443;-62
2022/09/18 08:50:44;;;;;;;2.67;0.93;;;;;;;19.94;35.88;100788.75;5006919;28;20855;-61
2022/09/18 08:53:16;;;;;;;3.20;1.07;;;;;;;20.03;35.68;100792.72;5009537;28;20422;-62
2022/09/18 08:55:44;;;;;;;3.65;1.20;;;;;;;20.00;35.74;100788.63;5005441;28;20475;-61
2022/09/18 08:58:23;;;;;;;2.75;1.00;;;;;;;19.92;36.05;100799.72;5007310;28;20403;-62
2022/09/18 09:00:53;;;;;;;3.10;0.93;;;;;;;19.98;35.88;100801.47;5011918;28;20977;-61
2022/09/18 09:03:52;;;;;;;3.28;1.38;;;;;;;19.98;35.49;100814.13;5004613;28;20418;-62
2022/09/18 09:06:35;;;;;;;3.70;1.20;;;;;;;19.95;35.25;100807.34;5011727;28;20393;-61
2022/09/18 09:09:22;;;;;;;3.23;1.30;;;;;;;20.04;35.03;100811.34;5014729;28;20489;-61
2022/09/18 09:11:54;;;;;;;4.83;1.43;;;;;;;20.05;35.12;100810.28;5008753;28;20388;-61
2022/09/18 09:14:25;;;;;;;5.43;1.30;;;;;;;20.10;34.69;100817.66;4994182;28;20434;-62
2022/09/18 09:17:02;;;;;;;4.32;1.58;;;;;;;20.07;34.66;100815.44;4989996;28;20401;-62
2022/09/18 09:19:52;;;;;;;4.82;1.67;;;;;;;20.10;34.83;100814.16;5003083;28;20390;-62
2022/09/18 09:22:32;;;;;;;3.83;1.90;;;;;;;20.24;34.75;100820.97;4990460;28;20919;-62
2022/09/18 09:25:07;;;;;;;3.47;1.60;;;;;;;20.21;34.60;100821.44;4991731;28;20382;-61
2022/09/18 09:27:48;;;;;;;3.67;1.40;;;;;;;20.22;34.00;100820.38;5003954;28;20406;-62
2022/09/18 09:30:16;;;;;;;5.20;1.60;;;;;;;20.19;34.06;100821.66;5004981;28;20386;-62
2022/09/18 09:32:48;;;;;;;5.32;1.60;;;;;;;20.32;33.91;100826.00;4991542;28;20926;-62
2022/09/18 09:35:36;;;;;;;6.57;1.40;;;;;;;20.25;33.69;100826.09;4991425;28;20405;-61
2022/09/18 09:38:37;;;;;;;3.60;1.30;;;;;;;20.27;33.67;100830.44;4990526;28;20401;-61
2022/09/18 09:41:25;;;;;;;7.45;2.10;;;;;;;20.28;33.63;100835.59;4990098;28;20820;-61
2022/09/18 09:43:59;;;;;;;3.28;1.10;;;;;;;20.30;33.86;100835.38;5002653;28;20413;-62
2022/09/18 09:47:02;;;;;;;5.30;2.15;;;;;;;20.21;33.83;100849.16;5006854;28;20450;-62
2022/09/18 09:49:42;;;;;;;2.85;1.40;;;;;;;20.11;33.69;100845.41;5003323;28;20895;-62
2022/09/18 09:52:11;;;;;;;5.28;1.08;;;;;;;20.11;33.64;100848.91;4991131;28;20397;-63
2022/09/18 09:54:36;;;;;;;4.35;1.50;;;;;;;20.16;33.99;100856.28;4999098;28;20421;-62
2022/09/18 09:57:30;;;;;;;2.63;1.50;;;;;;;20.11;33.88;100851.59;4997198;28;20396;-62
2022/09/18 10:00:13;;;;;;;2.42;1.20;;;;;;;19.83;33.09;100844.16;4994998;28;20409;-62
2022/09/18 10:02:59;;;;;;;3.33;1.10;;;;;;;19.72;32.77;100845.72;5001521;28;20390;-63
2022/09/18 10:05:41;;;;;;;3.38;1.05;;;;;;;19.80;33.16;100860.72;4988655;28;20396;-62
2022/09/18 10:08:20;;;;;;;3.22;1.20;;;;;;;19.93;32.85;100863.22;4990231;28;20386;-62
2022/09/18 10:10:53;;;;;;;3.35;1.02;;;;;;;19.93;32.81;100851.66;4990888;28;20488;-62
2022/09/18 10:13:22;;;;;;;2.20;1.10;;;;;;;19.99;32.53;100864.22;4998403;28;20898;-62
2022/09/18 10:16:15;;;;;;;2.35;1.05;;;;;;;19.94;32.69;100856.00;4990229;28;20465;-62
2022/09/18 10:18:45;;;;;;;1.85;0.80;;;;;;;19.86;32.53;100860.66;4991353;28;20485;-62
2022/09/18 10:21:18;;;;;;;2.60;0.70;;;;;;;19.89;32.72;100859.38;4989721;28;20421;-62
2022/09/18 10:23:49;;;;;;;5.45;0.90;;;;;;;19.95;32.88;100869.22;4990007;28;20962;-62
2022/09/18 10:26:22;;;;;;;3.42;0.80;;;;;;;19.98;32.66;100868.75;4989426;28;20382;-61
2022/09/18 10:28:48;;;;;;;3.33;0.88;;;;;;;20.05;32.43;100872.16;4989820;28;20452;-62
2022/09/18 10:31:15;;;;;;;2.05;0.70;;;;;;;20.20;32.33;100877.16;4995018;28;20389;-62
2022/09/18 10:33:43;;;;;;;3.33;0.93;;;;;;;20.25;32.24;100882.63;4989644;28;20409;-63
2022/09/18 10:36:24;;;;;;;1.40;0.60;;;;;;;20.12;32.24;100873.97;4989986;28;20386;-62
2022/09/18 10:38:51;;;;;;;2.30;0.80;;;;;;;20.08;32.50;100891.59;4989654;28;20933;-62
2022/09/18 10:41:34;;;;;;;2.85;0.70;;;;;;;20.05;32.11;100882.13;4989803;28;21018;-62
2022/09/18 10:44:13;;;;;;;1.85;0.90;;;;;;;20.25;32.12;100892.59;4989712;28;20397;-62
2022/09/18 10:46:49;;;;;;;2.88;1.08;;;;;;;20.11;31.93;100885.75;4989550;28;20382;-62
2022/09/18 10:49:22;;;;;;;2.57;1.20;;;;;;;20.02;32.02;100891.47;4989924;28;20382;-62
2022/09/18 10:52:15;;;;;;;4.23;1.50;;;;;;;20.17;31.76;100893.75;4990504;28;20378;-62
2022/09/18 10:55:08;;;;;;;2.75;1.30;;;;;;;20.19;31.83;100888.13;4990195;28;20405;-62
2022/09/18 10:57:36;;;;;;;2.70;0.77;;;;;;;20.18;31.64;100889.19;5003390;28;20394;-62
2022/09/18 11:00:18;;;;;;;3.08;1.00;;;;;;;20.39;31.32;100887.84;4999854;28;20395;-62
2022/09/18 11:03:15;;;;;;;2.72;0.75;;;;;;;20.49;31.02;100892.66;5008647;28;20536;-62
2022/09/18 11:06:03;;;;;;;2.47;0.82;;;;;;;20.43;30.39;100892.50;4996011;28;20400;-62
2022/09/18 11:08:34;;;;;;;1.85;0.65;;;;;;;20.41;30.36;100893.81;4994213;28;20402;-62
2022/09/18 11:11:09;;;;;;;2.63;0.73;;;;;;;20.31;30.56;100880.91;4998635;28;20401;-62
2022/09/18 11:13:43;;;;;;;2.50;0.55;;;;;;;20.33;30.80;100892.28;5000139;28;20423;-62
2022/09/18 11:16:10;;;;;;;2.37;0.60;;;;;;;20.26;30.87;100891.56;4993432;28;20393;-62
2022/09/18 11:18:36;;;;;;;1.70;0.68;;;;;;;20.13;31.13;100880.97;5000897;28;20488;-62
2022/09/18 11:21:05;;;;;;;2.78;0.90;;;;;;;20.28;31.47;100885.94;4989701;28;20485;-62
2022/09/18 11:23:33;;;;;;;2.90;0.75;;;;;;;20.50;31.40;100878.94;4999101;28;20388;-62
2022/09/18 11:26:28;;;;;;;1.75;0.60;;;;;;;20.67;31.07;100883.69;5006589;28;20431;-62
2022/09/18 11:29:05;;;;;;;1.77;0.60;;;;;;;20.68;30.94;100893.41;4994760;28;20392;-62
2022/09/18 11:31:53;;;;;;;1.25;0.63;;;;;;;20.67;30.85;100887.22;5009503;28;20392;-62
2022/09/18 11:34:49;;;;;;;2.22;0.60;;;;;;;20.64;30.54;100881.47;4995263;28;20951;-62
2022/09/18 11:39:49;;;;;;;2.70;0.80;;;;;;;20.61;30.55;100875.47;5076102;27;20408;-62
2022/09/18 11:42:16;;;;;;;2.55;0.90;;;;;;;20.61;30.65;100870.09;5063560;28;20410;-62
2022/09/18 11:44:41;;;;;;;1.67;0.65;;;;;;;20.68;30.94;100872.69;5066008;28;20886;-61
2022/09/18 11:47:36;;;;;;;3.37;0.83;;;;;;;20.80;30.59;100872.69;5065540;28;20430;-61
2022/09/18 11:50:14;;;;;;;2.30;0.90;;;;;;;20.87;30.69;100869.88;5063364;28;20804;-61
2022/09/18 11:52:47;;;;;;;1.93;0.80;;;;;;;21.03;30.15;100871.03;5065465;28;20383;-61
2022/09/18 11:55:23;;;;;;;0.90;0.50;;;;;;;21.23;29.84;100884.13;5065478;28;20395;-61
2022/09/18 11:57:57;;;;;;;3.20;0.65;;;;;;;21.37;29.47;100874.72;5065666;28;20491;-61
2022/09/18 12:00:27;;;;;;;3.97;0.60;;;;;;;21.44;29.65;100878.13;5066003;28;20545;-61
2022/09/18 12:03:05;;;;;;;3.90;0.68;;;;;;;21.37;29.56;100875.56;5055990;28;20384;-61
2022/09/18 12:05:40;;;;;;;2.80;0.80;;;;;;;21.37;29.80;100890.91;5064965;28;20763;-61
2022/09/18 12:08:31;;;;;;;1.98;0.85;;;;;;;21.23;29.58;100886.84;5056657;28;20384;-62
2022/09/18 12:11:28;;;;;;;1.17;0.57;;;;;;;21.16;29.87;100897.75;5060041;28;20422;-61
2022/09/18 12:14:09;;;;;;;4.35;0.90;;;;;;;20.98;29.97;100896.81;5062141;28;20388;-60
2022/09/18 12:16:48;;;;;;;1.20;0.60;;;;;;;20.91;29.83;100895.31;5070484;28;20779;-61
2022/09/18 12:19:38;;;;;;;2.45;0.60;;;;;;;20.84;29.58;100895.41;5072945;28;20441;-62
2022/09/18 12:22:15;;;;;;;1.63;0.60;;;;;;;20.85;29.71;100894.38;5063884;28;21035;-61
2022/09/18 12:24:40;;;;;;;1.08;0.60;;;;;;;20.86;29.78;100893.31;5062408;28;20384;-60
2022/09/18 12:27:21;;;;;;;2.40;0.60;;;;;;;20.84;29.92;100894.59;5065656;28;20388;-61
2022/09/18 12:30:03;;;;;;;5.50;1.50;;;;;;;20.80;29.66;100888.88;5061844;28;20386;-60